sensor_id;sensor_type;location;lat;lon;timestamp;P1;durP1;ratioP1;P2;durP2;ratioP2
66179;SDS011;52986;44.028;20.466;2023-09-12T00:02:17;12.30;;;5.38;;
66179;SDS011;52986;44.028;20.466;2023-09-12T00:04:42;13.00;;;5.68;;
66179;SDS011;52986;44.028;20.466;2023-09-12T00:07:07;11.98;;;5.40;;
66179;SDS011;52986;44.028;20.466;2023-09-12T00:09:33;11.35;;;5.40;;
66179;SDS011;52986;44.028;20.466;2023-09-12T00:11:58;12.70;;;5.53;;
66179;SDS011;52986;44.028;20.466;2023-09-12T00:14:24;14.40;;;5.75;;
66179;SDS011;52986;44.028;20.466;2023-09-12T00:16:49;12.52;;;5.53;;
66179;SDS011;52986;44.028;20.466;2023-09-12T00:19:17;14.00;;;5.50;;
66179;SDS011;52986;44.028;20.466;2023-09-12T00:21:43;11.45;;;5.43;;
66179;SDS011;52986;44.028;20.466;2023-09-12T00:24:08;12.40;;;5.53;;
66179;SDS011;52986;44.028;20.466;2023-09-12T00:26:33;13.40;;;5.82;;
66179;SDS011;52986;44.028;20.466;2023-09-12T00:28:59;12.13;;;5.45;;
66179;SDS011;52986;44.028;20.466;2023-09-12T00:31:24;11.93;;;5.38;;
66179;SDS011;52986;44.028;20.466;2023-09-12T00:33:50;10.88;;;5.30;;
66179;SDS011;52986;44.028;20.466;2023-09-12T00:36:15;11.55;;;5.90;;
66179;SDS011;52986;44.028;20.466;2023-09-12T00:38:40;11.43;;;5.07;;
66179;SDS011;52986;44.028;20.466;2023-09-12T00:41:06;10.80;;;5.35;;
66179;SDS011;52986;44.028;20.466;2023-09-12T00:43:31;12.70;;;5.05;;
66179;SDS011;52986;44.028;20.466;2023-09-12T00:45:57;12.52;;;5.55;;
66179;SDS011;52986;44.028;20.466;2023-09-12T00:48:22;12.05;;;5.30;;
66179;SDS011;52986;44.028;20.466;2023-09-12T00:50:49;13.43;;;5.47;;
66179;SDS011;52986;44.028;20.466;2023-09-12T00:53:15;11.55;;;4.72;;
66179;SDS011;52986;44.028;20.466;2023-09-12T00:55:45;12.07;;;5.15;;
66179;SDS011;52986;44.028;20.466;2023-09-12T00:58:15;12.88;;;5.57;;
66179;SDS011;52986;44.028;20.466;2023-09-12T01:00:41;11.85;;;4.75;;
66179;SDS011;52986;44.028;20.466;2023-09-12T01:03:06;13.15;;;5.45;;
66179;SDS011;52986;44.028;20.466;2023-09-12T01:05:32;13.60;;;5.38;;
66179;SDS011;52986;44.028;20.466;2023-09-12T01:07:58;11.50;;;5.38;;
66179;SDS011;52986;44.028;20.466;2023-09-12T01:10:25;12.57;;;5.60;;
66179;SDS011;52986;44.028;20.466;2023-09-12T01:12:50;13.27;;;4.80;;
66179;SDS011;52986;44.028;20.466;2023-09-12T01:15:17;13.45;;;5.70;;
66179;SDS011;52986;44.028;20.466;2023-09-12T01:17:43;12.18;;;5.35;;
66179;SDS011;52986;44.028;20.466;2023-09-12T01:20:46;13.20;;;5.25;;
66179;SDS011;52986;44.028;20.466;2023-09-12T01:28:15;11.63;;;5.20;;
66179;SDS011;52986;44.028;20.466;2023-09-12T01:30:42;10.07;;;4.70;;
66179;SDS011;52986;44.028;20.466;2023-09-12T01:33:08;10.38;;;4.53;;
66179;SDS011;52986;44.028;20.466;2023-09-12T01:35:34;12.18;;;5.38;;
66179;SDS011;52986;44.028;20.466;2023-09-12T01:37:59;11.02;;;5.22;;
66179;SDS011;52986;44.028;20.466;2023-09-12T01:40:28;11.35;;;5.43;;
66179;SDS011;52986;44.028;20.466;2023-09-12T01:43:09;14.05;;;5.57;;
66179;SDS011;52986;44.028;20.466;2023-09-12T01:45:35;12.15;;;5.32;;
66179;SDS011;52986;44.028;20.466;2023-09-12T01:48:01;11.77;;;5.25;;
66179;SDS011;52986;44.028;20.466;2023-09-12T01:50:29;11.98;;;5.13;;
66179;SDS011;52986;44.028;20.466;2023-09-12T01:52:56;12.20;;;4.88;;
66179;SDS011;52986;44.028;20.466;2023-09-12T01:55:21;11.57;;;5.22;;
66179;SDS011;52986;44.028;20.466;2023-09-12T01:57:47;12.23;;;5.28;;
66179;SDS011;52986;44.028;20.466;2023-09-12T02:00:13;10.82;;;4.95;;
66179;SDS011;52986;44.028;20.466;2023-09-12T02:02:39;10.98;;;5.30;;
66179;SDS011;52986;44.028;20.466;2023-09-12T02:05:15;11.38;;;5.18;;
66179;SDS011;52986;44.028;20.466;2023-09-12T02:07:44;13.93;;;5.72;;
66179;SDS011;52986;44.028;20.466;2023-09-12T02:10:10;11.43;;;5.18;;
66179;SDS011;52986;44.028;20.466;2023-09-12T02:12:36;12.52;;;5.10;;
66179;SDS011;52986;44.028;20.466;2023-09-12T02:15:02;11.82;;;5.22;;
66179;SDS011;52986;44.028;20.466;2023-09-12T02:17:27;11.18;;;5.03;;
66179;SDS011;52986;44.028;20.466;2023-09-12T02:19:53;11.65;;;5.32;;
66179;SDS011;52986;44.028;20.466;2023-09-12T02:22:18;14.35;;;5.88;;
66179;SDS011;52986;44.028;20.466;2023-09-12T02:24:44;11.65;;;5.10;;
66179;SDS011;52986;44.028;20.466;2023-09-12T02:27:09;11.13;;;5.63;;
66179;SDS011;52986;44.028;20.466;2023-09-12T02:29:34;11.75;;;5.40;;
66179;SDS011;52986;44.028;20.466;2023-09-12T02:32:00;12.30;;;5.13;;
66179;SDS011;52986;44.028;20.466;2023-09-12T02:34:25;12.25;;;5.53;;
66179;SDS011;52986;44.028;20.466;2023-09-12T02:36:51;11.13;;;5.22;;
66179;SDS011;52986;44.028;20.466;2023-09-12T02:39:16;12.88;;;5.10;;
66179;SDS011;52986;44.028;20.466;2023-09-12T02:41:42;12.23;;;5.07;;
66179;SDS011;52986;44.028;20.466;2023-09-12T02:44:07;12.77;;;5.90;;
66179;SDS011;52986;44.028;20.466;2023-09-12T02:46:33;11.68;;;5.10;;
66179;SDS011;52986;44.028;20.466;2023-09-12T02:48:58;10.68;;;5.13;;
66179;SDS011;52986;44.028;20.466;2023-09-12T02:51:27;14.43;;;5.07;;
66179;SDS011;52986;44.028;20.466;2023-09-12T02:53:53;15.32;;;5.72;;
66179;SDS011;52986;44.028;20.466;2023-09-12T02:56:18;11.15;;;5.53;;
66179;SDS011;52986;44.028;20.466;2023-09-12T02:58:47;13.00;;;5.68;;
66179;SDS011;52986;44.028;20.466;2023-09-12T03:01:15;14.45;;;5.80;;
66179;SDS011;52986;44.028;20.466;2023-09-12T03:03:43;11.70;;;5.13;;
66179;SDS011;52986;44.028;20.466;2023-09-12T03:06:09;13.57;;;5.65;;
66179;SDS011;52986;44.028;20.466;2023-09-12T03:08:34;11.55;;;5.47;;
66179;SDS011;52986;44.028;20.466;2023-09-12T03:11:00;12.95;;;5.25;;
66179;SDS011;52986;44.028;20.466;2023-09-12T03:13:27;11.45;;;5.90;;
66179;SDS011;52986;44.028;20.466;2023-09-12T03:15:53;12.13;;;5.47;;
66179;SDS011;52986;44.028;20.466;2023-09-12T03:18:19;14.10;;;5.65;;
66179;SDS011;52986;44.028;20.466;2023-09-12T03:20:44;13.27;;;5.60;;
66179;SDS011;52986;44.028;20.466;2023-09-12T03:23:09;11.07;;;5.57;;
66179;SDS011;52986;44.028;20.466;2023-09-12T03:25:36;12.30;;;5.50;;
66179;SDS011;52986;44.028;20.466;2023-09-12T03:28:03;16.38;;;5.72;;
66179;SDS011;52986;44.028;20.466;2023-09-12T03:30:29;16.67;;;5.80;;
66179;SDS011;52986;44.028;20.466;2023-09-12T03:32:54;15.43;;;5.90;;
66179;SDS011;52986;44.028;20.466;2023-09-12T03:35:19;14.77;;;5.80;;
66179;SDS011;52986;44.028;20.466;2023-09-12T03:37:45;10.90;;;5.15;;
66179;SDS011;52986;44.028;20.466;2023-09-12T03:40:10;13.27;;;5.40;;
66179;SDS011;52986;44.028;20.466;2023-09-12T03:42:36;10.82;;;5.32;;
66179;SDS011;52986;44.028;20.466;2023-09-12T03:45:02;12.68;;;5.15;;
66179;SDS011;52986;44.028;20.466;2023-09-12T03:47:28;17.25;;;5.60;;
66179;SDS011;52986;44.028;20.466;2023-09-12T03:49:53;11.50;;;5.20;;
66179;SDS011;52986;44.028;20.466;2023-09-12T03:52:19;14.65;;;5.30;;
66179;SDS011;52986;44.028;20.466;2023-09-12T03:54:44;14.10;;;5.70;;
66179;SDS011;52986;44.028;20.466;2023-09-12T03:57:10;13.93;;;5.68;;
66179;SDS011;52986;44.028;20.466;2023-09-12T03:59:35;11.07;;;5.05;;
66179;SDS011;52986;44.028;20.466;2023-09-12T04:02:01;12.82;;;5.70;;
66179;SDS011;52986;44.028;20.466;2023-09-12T04:04:28;14.52;;;5.40;;
66179;SDS011;52986;44.028;20.466;2023-09-12T04:06:53;12.77;;;5.25;;
66179;SDS011;52986;44.028;20.466;2023-09-12T04:09:19;14.50;;;5.68;;
66179;SDS011;52986;44.028;20.466;2023-09-12T04:11:45;15.55;;;5.95;;
66179;SDS011;52986;44.028;20.466;2023-09-12T04:14:10;16.45;;;6.57;;
66179;SDS011;52986;44.028;20.466;2023-09-12T04:16:36;14.00;;;5.80;;
66179;SDS011;52986;44.028;20.466;2023-09-12T04:19:01;10.80;;;5.20;;
66179;SDS011;52986;44.028;20.466;2023-09-12T04:21:28;14.23;;;5.63;;
66179;SDS011;52986;44.028;20.466;2023-09-12T04:23:53;12.57;;;5.28;;
66179;SDS011;52986;44.028;20.466;2023-09-12T04:26:19;11.48;;;5.50;;
66179;SDS011;52986;44.028;20.466;2023-09-12T04:28:46;14.20;;;5.60;;
66179;SDS011;52986;44.028;20.466;2023-09-12T04:31:12;15.35;;;5.95;;
66179;SDS011;52986;44.028;20.466;2023-09-12T04:33:37;18.42;;;7.55;;
66179;SDS011;52986;44.028;20.466;2023-09-12T04:36:03;16.13;;;7.70;;
66179;SDS011;52986;44.028;20.466;2023-09-12T04:38:29;14.02;;;6.40;;
66179;SDS011;52986;44.028;20.466;2023-09-12T04:40:59;17.08;;;7.03;;
66179;SDS011;52986;44.028;20.466;2023-09-12T04:43:32;20.45;;;6.47;;
66179;SDS011;52986;44.028;20.466;2023-09-12T04:45:57;14.63;;;6.00;;
66179;SDS011;52986;44.028;20.466;2023-09-12T04:48:23;12.15;;;6.35;;
66179;SDS011;52986;44.028;20.466;2023-09-12T04:50:49;13.30;;;6.07;;
66179;SDS011;52986;44.028;20.466;2023-09-12T04:53:14;13.20;;;6.00;;
66179;SDS011;52986;44.028;20.466;2023-09-12T04:55:40;13.13;;;5.72;;
66179;SDS011;52986;44.028;20.466;2023-09-12T04:58:05;11.75;;;5.50;;
66179;SDS011;52986;44.028;20.466;2023-09-12T05:00:31;13.82;;;5.80;;
66179;SDS011;52986;44.028;20.466;2023-09-12T05:02:57;15.32;;;5.40;;
66179;SDS011;52986;44.028;20.466;2023-09-12T05:05:23;14.18;;;6.43;;
66179;SDS011;52986;44.028;20.466;2023-09-12T05:07:48;15.10;;;5.90;;
66179;SDS011;52986;44.028;20.466;2023-09-12T05:10:13;18.48;;;6.65;;
66179;SDS011;52986;44.028;20.466;2023-09-12T05:12:39;14.68;;;6.00;;
66179;SDS011;52986;44.028;20.466;2023-09-12T05:15:04;13.68;;;6.22;;
66179;SDS011;52986;44.028;20.466;2023-09-12T05:17:30;12.48;;;5.85;;
66179;SDS011;52986;44.028;20.466;2023-09-12T05:19:56;15.25;;;6.13;;
66179;SDS011;52986;44.028;20.466;2023-09-12T05:22:21;15.05;;;6.03;;
66179;SDS011;52986;44.028;20.466;2023-09-12T05:24:47;14.55;;;5.85;;
66179;SDS011;52986;44.028;20.466;2023-09-12T05:27:12;12.15;;;5.35;;
66179;SDS011;52986;44.028;20.466;2023-09-12T05:29:38;15.18;;;6.65;;
66179;SDS011;52986;44.028;20.466;2023-09-12T05:32:03;21.08;;;6.75;;
66179;SDS011;52986;44.028;20.466;2023-09-12T05:34:29;21.23;;;6.63;;
66179;SDS011;52986;44.028;20.466;2023-09-12T05:36:56;18.77;;;5.93;;
66179;SDS011;52986;44.028;20.466;2023-09-12T05:39:22;24.08;;;6.25;;
66179;SDS011;52986;44.028;20.466;2023-09-12T05:41:48;15.30;;;7.07;;
66179;SDS011;52986;44.028;20.466;2023-09-12T05:44:14;19.13;;;6.40;;
66179;SDS011;52986;44.028;20.466;2023-09-12T05:46:43;18.13;;;6.40;;
66179;SDS011;52986;44.028;20.466;2023-09-12T05:49:12;16.73;;;7.72;;
66179;SDS011;52986;44.028;20.466;2023-09-12T05:51:37;17.30;;;6.53;;
66179;SDS011;52986;44.028;20.466;2023-09-12T05:54:03;15.13;;;7.22;;
66179;SDS011;52986;44.028;20.466;2023-09-12T05:56:29;17.83;;;6.63;;
66179;SDS011;52986;44.028;20.466;2023-09-12T05:58:54;17.20;;;6.50;;
66179;SDS011;52986;44.028;20.466;2023-09-12T06:01:19;14.75;;;5.80;;
66179;SDS011;52986;44.028;20.466;2023-09-12T06:03:45;17.65;;;6.57;;
66179;SDS011;52986;44.028;20.466;2023-09-12T06:06:10;14.95;;;6.13;;
66179;SDS011;52986;44.028;20.466;2023-09-12T06:08:36;15.93;;;6.45;;
66179;SDS011;52986;44.028;20.466;2023-09-12T06:11:02;18.77;;;6.63;;
66179;SDS011;52986;44.028;20.466;2023-09-12T06:13:28;18.60;;;6.22;;
66179;SDS011;52986;44.028;20.466;2023-09-12T06:15:54;19.30;;;7.03;;
66179;SDS011;52986;44.028;20.466;2023-09-12T06:18:19;15.35;;;6.80;;
66179;SDS011;52986;44.028;20.466;2023-09-12T06:20:45;17.08;;;6.30;;
66179;SDS011;52986;44.028;20.466;2023-09-12T06:23:11;17.05;;;6.22;;
66179;SDS011;52986;44.028;20.466;2023-09-12T06:25:36;14.70;;;5.78;;
66179;SDS011;52986;44.028;20.466;2023-09-12T06:28:02;16.50;;;5.65;;
66179;SDS011;52986;44.028;20.466;2023-09-12T06:30:27;13.52;;;4.60;;
66179;SDS011;52986;44.028;20.466;2023-09-12T06:32:53;13.95;;;4.70;;
66179;SDS011;52986;44.028;20.466;2023-09-12T06:35:18;13.35;;;5.13;;
66179;SDS011;52986;44.028;20.466;2023-09-12T06:37:44;13.70;;;4.88;;
66179;SDS011;52986;44.028;20.466;2023-09-12T06:40:09;10.50;;;4.60;;
66179;SDS011;52986;44.028;20.466;2023-09-12T06:42:35;13.40;;;5.40;;
66179;SDS011;52986;44.028;20.466;2023-09-12T06:45:00;12.38;;;5.00;;
66179;SDS011;52986;44.028;20.466;2023-09-12T06:47:26;14.27;;;5.28;;
66179;SDS011;52986;44.028;20.466;2023-09-12T06:49:51;14.05;;;5.25;;
66179;SDS011;52986;44.028;20.466;2023-09-12T06:52:16;13.35;;;4.90;;
66179;SDS011;52986;44.028;20.466;2023-09-12T06:54:42;15.18;;;5.40;;
66179;SDS011;52986;44.028;20.466;2023-09-12T06:57:07;15.25;;;5.30;;
66179;SDS011;52986;44.028;20.466;2023-09-12T06:59:33;15.40;;;4.97;;
66179;SDS011;52986;44.028;20.466;2023-09-12T07:01:58;13.02;;;5.18;;
66179;SDS011;52986;44.028;20.466;2023-09-12T07:04:24;14.35;;;5.20;;
66179;SDS011;52986;44.028;20.466;2023-09-12T07:06:50;16.65;;;5.43;;
66179;SDS011;52986;44.028;20.466;2023-09-12T07:09:16;15.30;;;5.50;;
66179;SDS011;52986;44.028;20.466;2023-09-12T07:11:42;15.10;;;5.85;;
66179;SDS011;52986;44.028;20.466;2023-09-12T07:14:08;16.92;;;5.78;;
66179;SDS011;52986;44.028;20.466;2023-09-12T07:16:36;11.18;;;5.30;;
66179;SDS011;52986;44.028;20.466;2023-09-12T07:19:02;13.40;;;5.60;;
66179;SDS011;52986;44.028;20.466;2023-09-12T07:21:28;14.15;;;5.50;;
66179;SDS011;52986;44.028;20.466;2023-09-12T07:23:54;15.95;;;5.45;;
66179;SDS011;52986;44.028;20.466;2023-09-12T07:26:20;14.05;;;5.65;;
66179;SDS011;52986;44.028;20.466;2023-09-12T07:28:45;16.73;;;5.38;;
66179;SDS011;52986;44.028;20.466;2023-09-12T07:31:11;12.35;;;4.75;;
66179;SDS011;52986;44.028;20.466;2023-09-12T07:33:36;12.75;;;4.75;;
66179;SDS011;52986;44.028;20.466;2023-09-12T07:36:02;15.27;;;4.93;;
66179;SDS011;52986;44.028;20.466;2023-09-12T07:38:30;12.70;;;5.18;;
66179;SDS011;52986;44.028;20.466;2023-09-12T07:41:00;14.02;;;5.40;;
66179;SDS011;52986;44.028;20.466;2023-09-12T07:43:27;14.48;;;5.10;;
66179;SDS011;52986;44.028;20.466;2023-09-12T07:45:56;12.40;;;4.45;;
66179;SDS011;52986;44.028;20.466;2023-09-12T07:48:23;13.75;;;4.90;;
66179;SDS011;52986;44.028;20.466;2023-09-12T07:50:48;13.32;;;5.32;;
66179;SDS011;52986;44.028;20.466;2023-09-12T07:53:14;14.50;;;4.97;;
66179;SDS011;52986;44.028;20.466;2023-09-12T07:55:39;12.82;;;4.97;;
66179;SDS011;52986;44.028;20.466;2023-09-12T07:58:19;13.93;;;4.85;;
66179;SDS011;52986;44.028;20.466;2023-09-12T08:00:45;13.48;;;5.00;;
66179;SDS011;52986;44.028;20.466;2023-09-12T08:03:11;12.45;;;4.85;;
66179;SDS011;52986;44.028;20.466;2023-09-12T08:05:36;12.85;;;5.25;;
66179;SDS011;52986;44.028;20.466;2023-09-12T08:08:03;14.60;;;5.30;;
66179;SDS011;52986;44.028;20.466;2023-09-12T08:10:29;13.32;;;4.80;;
66179;SDS011;52986;44.028;20.466;2023-09-12T08:12:54;12.45;;;4.70;;
66179;SDS011;52986;44.028;20.466;2023-09-12T08:15:20;15.50;;;4.95;;
66179;SDS011;52986;44.028;20.466;2023-09-12T08:17:45;20.08;;;5.05;;
66179;SDS011;52986;44.028;20.466;2023-09-12T08:20:16;14.25;;;4.60;;
66179;SDS011;52986;44.028;20.466;2023-09-12T08:22:42;11.85;;;4.63;;
66179;SDS011;52986;44.028;20.466;2023-09-12T08:25:08;12.30;;;4.40;;
66179;SDS011;52986;44.028;20.466;2023-09-12T08:27:35;9.82;;;4.00;;
66179;SDS011;52986;44.028;20.466;2023-09-12T08:30:00;12.82;;;4.25;;
66179;SDS011;52986;44.028;20.466;2023-09-12T08:32:26;13.48;;;4.22;;
66179;SDS011;52986;44.028;20.466;2023-09-12T08:34:51;14.45;;;4.53;;
66179;SDS011;52986;44.028;20.466;2023-09-12T08:37:17;10.27;;;4.38;;
66179;SDS011;52986;44.028;20.466;2023-09-12T08:39:43;13.57;;;4.63;;
66179;SDS011;52986;44.028;20.466;2023-09-12T08:42:13;15.60;;;5.25;;
66179;SDS011;52986;44.028;20.466;2023-09-12T08:44:42;11.60;;;4.28;;
66179;SDS011;52986;44.028;20.466;2023-09-12T08:47:11;13.88;;;4.22;;
66179;SDS011;52986;44.028;20.466;2023-09-12T08:49:36;11.45;;;4.18;;
66179;SDS011;52986;44.028;20.466;2023-09-12T08:52:03;10.93;;;4.30;;
66179;SDS011;52986;44.028;20.466;2023-09-12T08:54:31;13.32;;;4.60;;
66179;SDS011;52986;44.028;20.466;2023-09-12T08:56:57;14.18;;;4.50;;
66179;SDS011;52986;44.028;20.466;2023-09-12T08:59:23;9.95;;;4.15;;
66179;SDS011;52986;44.028;20.466;2023-09-12T09:01:49;12.95;;;4.57;;
66179;SDS011;52986;44.028;20.466;2023-09-12T09:04:17;13.35;;;4.45;;
66179;SDS011;52986;44.028;20.466;2023-09-12T09:06:44;11.70;;;4.15;;
66179;SDS011;52986;44.028;20.466;2023-09-12T09:09:11;10.75;;;4.15;;
66179;SDS011;52986;44.028;20.466;2023-09-12T09:11:37;10.45;;;3.90;;
66179;SDS011;52986;44.028;20.466;2023-09-12T09:14:03;13.27;;;3.47;;
66179;SDS011;52986;44.028;20.466;2023-09-12T09:16:28;10.35;;;3.83;;
66179;SDS011;52986;44.028;20.466;2023-09-12T09:18:55;9.70;;;3.88;;
66179;SDS011;52986;44.028;20.466;2023-09-12T09:21:23;10.50;;;4.32;;
66179;SDS011;52986;44.028;20.466;2023-09-12T09:23:50;12.13;;;4.20;;
66179;SDS011;52986;44.028;20.466;2023-09-12T09:26:19;11.80;;;3.78;;
66179;SDS011;52986;44.028;20.466;2023-09-12T09:28:45;12.23;;;4.70;;
66179;SDS011;52986;44.028;20.466;2023-09-12T09:31:25;12.05;;;4.10;;
66179;SDS011;52986;44.028;20.466;2023-09-12T09:33:50;11.35;;;4.10;;
66179;SDS011;52986;44.028;20.466;2023-09-12T09:36:17;11.98;;;4.43;;
66179;SDS011;52986;44.028;20.466;2023-09-12T09:38:42;13.57;;;4.22;;
66179;SDS011;52986;44.028;20.466;2023-09-12T09:41:08;15.95;;;7.28;;
66179;SDS011;52986;44.028;20.466;2023-09-12T09:43:34;12.05;;;3.95;;
66179;SDS011;52986;44.028;20.466;2023-09-12T09:46:00;11.25;;;4.20;;
66179;SDS011;52986;44.028;20.466;2023-09-12T09:48:26;12.52;;;4.35;;
66179;SDS011;52986;44.028;20.466;2023-09-12T09:51:00;12.93;;;4.55;;
66179;SDS011;52986;44.028;20.466;2023-09-12T09:53:28;12.95;;;4.57;;
66179;SDS011;52986;44.028;20.466;2023-09-12T09:56:07;11.73;;;4.25;;
66179;SDS011;52986;44.028;20.466;2023-09-12T09:58:58;13.15;;;5.47;;
66179;SDS011;52986;44.028;20.466;2023-09-12T10:01:23;11.13;;;4.30;;
66179;SDS011;52986;44.028;20.466;2023-09-12T10:03:53;11.90;;;4.25;;
66179;SDS011;52986;44.028;20.466;2023-09-12T10:06:25;12.18;;;4.10;;
66179;SDS011;52986;44.028;20.466;2023-09-12T10:08:52;14.80;;;6.18;;
66179;SDS011;52986;44.028;20.466;2023-09-12T10:11:20;14.48;;;4.07;;
66179;SDS011;52986;44.028;20.466;2023-09-12T10:13:57;12.02;;;4.82;;
66179;SDS011;52986;44.028;20.466;2023-09-12T10:16:30;14.52;;;4.65;;
66179;SDS011;52986;44.028;20.466;2023-09-12T10:24:37;15.65;;;4.30;;
66179;SDS011;52986;44.028;20.466;2023-09-12T10:27:05;12.82;;;4.38;;
66179;SDS011;52986;44.028;20.466;2023-09-12T10:29:31;11.70;;;4.75;;
66179;SDS011;52986;44.028;20.466;2023-09-12T10:31:57;11.73;;;4.72;;
66179;SDS011;52986;44.028;20.466;2023-09-12T10:34:24;13.00;;;4.25;;
66179;SDS011;52986;44.028;20.466;2023-09-12T10:36:50;14.60;;;3.92;;
66179;SDS011;52986;44.028;20.466;2023-09-12T10:39:16;12.50;;;4.60;;
66179;SDS011;52986;44.028;20.466;2023-09-12T10:41:44;17.10;;;5.47;;
66179;SDS011;52986;44.028;20.466;2023-09-12T10:44:11;15.80;;;6.00;;
66179;SDS011;52986;44.028;20.466;2023-09-12T10:46:43;14.82;;;5.20;;
66179;SDS011;52986;44.028;20.466;2023-09-12T10:49:10;14.95;;;4.57;;
66179;SDS011;52986;44.028;20.466;2023-09-12T10:51:40;15.95;;;6.55;;
66179;SDS011;52986;44.028;20.466;2023-09-12T10:54:07;9.98;;;3.88;;
66179;SDS011;52986;44.028;20.466;2023-09-12T10:56:34;13.90;;;4.18;;
66179;SDS011;52986;44.028;20.466;2023-09-12T11:01:50;12.70;;;4.78;;
66179;SDS011;52986;44.028;20.466;2023-09-12T11:06:44;14.15;;;5.28;;
66179;SDS011;52986;44.028;20.466;2023-09-12T11:11:38;12.35;;;4.10;;
66179;SDS011;52986;44.028;20.466;2023-09-12T11:14:05;16.38;;;6.53;;
66179;SDS011;52986;44.028;20.466;2023-09-12T11:16:31;17.13;;;5.45;;
66179;SDS011;52986;44.028;20.466;2023-09-12T11:21:44;16.70;;;4.40;;
66179;SDS011;52986;44.028;20.466;2023-09-12T11:24:17;15.07;;;4.30;;
66179;SDS011;52986;44.028;20.466;2023-09-12T11:27:02;12.35;;;4.15;;
66179;SDS011;52986;44.028;20.466;2023-09-12T11:29:37;15.60;;;5.22;;
66179;SDS011;52986;44.028;20.466;2023-09-12T11:32:04;13.50;;;4.30;;
66179;SDS011;52986;44.028;20.466;2023-09-12T11:37:03;15.32;;;5.95;;
66179;SDS011;52986;44.028;20.466;2023-09-12T11:39:33;15.55;;;5.28;;
66179;SDS011;52986;44.028;20.466;2023-09-12T11:42:00;12.57;;;4.28;;
66179;SDS011;52986;44.028;20.466;2023-09-12T11:44:27;14.82;;;6.03;;
66179;SDS011;52986;44.028;20.466;2023-09-12T11:46:53;15.65;;;4.97;;
66179;SDS011;52986;44.028;20.466;2023-09-12T11:49:20;16.23;;;4.30;;
66179;SDS011;52986;44.028;20.466;2023-09-12T11:51:47;15.13;;;4.28;;
66179;SDS011;52986;44.028;20.466;2023-09-12T11:54:20;18.48;;;6.07;;
66179;SDS011;52986;44.028;20.466;2023-09-12T11:56:51;17.45;;;4.38;;
66179;SDS011;52986;44.028;20.466;2023-09-12T11:59:28;19.33;;;4.30;;
66179;SDS011;52986;44.028;20.466;2023-09-12T12:01:54;16.73;;;5.78;;
66179;SDS011;52986;44.028;20.466;2023-09-12T12:04:21;16.67;;;5.20;;
66179;SDS011;52986;44.028;20.466;2023-09-12T12:06:47;12.60;;;4.63;;
66179;SDS011;52986;44.028;20.466;2023-09-12T12:09:14;17.55;;;4.68;;
66179;SDS011;52986;44.028;20.466;2023-09-12T12:11:42;17.00;;;5.22;;
66179;SDS011;52986;44.028;20.466;2023-09-12T12:14:11;15.85;;;7.03;;
66179;SDS011;52986;44.028;20.466;2023-09-12T12:16:37;14.82;;;4.10;;
66179;SDS011;52986;44.028;20.466;2023-09-12T12:19:02;15.73;;;5.15;;
66179;SDS011;52986;44.028;20.466;2023-09-12T12:21:28;12.20;;;3.75;;
66179;SDS011;52986;44.028;20.466;2023-09-12T12:23:57;18.38;;;3.65;;
66179;SDS011;52986;44.028;20.466;2023-09-12T12:26:24;15.05;;;3.83;;
66179;SDS011;52986;44.028;20.466;2023-09-12T12:28:50;15.57;;;5.50;;
66179;SDS011;52986;44.028;20.466;2023-09-12T12:31:16;18.75;;;5.25;;
66179;SDS011;52986;44.028;20.466;2023-09-12T12:33:47;16.13;;;4.18;;
66179;SDS011;52986;44.028;20.466;2023-09-12T12:36:17;17.67;;;6.47;;
66179;SDS011;52986;44.028;20.466;2023-09-12T12:38:43;15.43;;;6.03;;
66179;SDS011;52986;44.028;20.466;2023-09-12T12:41:12;18.27;;;5.03;;
66179;SDS011;52986;44.028;20.466;2023-09-12T12:43:42;16.30;;;6.43;;
66179;SDS011;52986;44.028;20.466;2023-09-12T12:46:11;20.48;;;7.40;;
66179;SDS011;52986;44.028;20.466;2023-09-12T12:48:38;14.75;;;6.43;;
66179;SDS011;52986;44.028;20.466;2023-09-12T12:51:12;14.18;;;4.07;;
66179;SDS011;52986;44.028;20.466;2023-09-12T12:53:51;15.07;;;5.45;;
66179;SDS011;52986;44.028;20.466;2023-09-12T12:56:18;31.67;;;5.60;;
66179;SDS011;52986;44.028;20.466;2023-09-12T12:58:54;22.35;;;5.78;;
66179;SDS011;52986;44.028;20.466;2023-09-12T13:01:22;15.85;;;5.15;;
66179;SDS011;52986;44.028;20.466;2023-09-12T13:03:47;15.75;;;5.13;;
66179;SDS011;52986;44.028;20.466;2023-09-12T13:06:15;15.38;;;5.45;;
66179;SDS011;52986;44.028;20.466;2023-09-12T13:08:42;19.13;;;5.20;;
66179;SDS011;52986;44.028;20.466;2023-09-12T13:11:09;15.50;;;4.15;;
66179;SDS011;52986;44.028;20.466;2023-09-12T13:13:36;19.58;;;6.38;;
66179;SDS011;52986;44.028;20.466;2023-09-12T13:16:02;19.10;;;5.82;;
66179;SDS011;52986;44.028;20.466;2023-09-12T13:18:32;17.13;;;4.50;;
66179;SDS011;52986;44.028;20.466;2023-09-12T13:20:58;19.50;;;4.88;;
66179;SDS011;52986;44.028;20.466;2023-09-12T13:23:23;16.05;;;4.68;;
66179;SDS011;52986;44.028;20.466;2023-09-12T13:25:50;21.38;;;4.60;;
66179;SDS011;52986;44.028;20.466;2023-09-12T13:28:16;19.58;;;5.20;;
66179;SDS011;52986;44.028;20.466;2023-09-12T13:30:41;22.45;;;7.28;;
66179;SDS011;52986;44.028;20.466;2023-09-12T13:33:07;20.23;;;5.53;;
66179;SDS011;52986;44.028;20.466;2023-09-12T13:35:32;19.42;;;4.95;;
66179;SDS011;52986;44.028;20.466;2023-09-12T13:37:57;20.88;;;6.13;;
66179;SDS011;52986;44.028;20.466;2023-09-12T13:40:23;16.13;;;3.80;;
66179;SDS011;52986;44.028;20.466;2023-09-12T13:42:48;15.80;;;5.22;;
66179;SDS011;52986;44.028;20.466;2023-09-12T13:45:13;18.73;;;5.20;;
66179;SDS011;52986;44.028;20.466;2023-09-12T13:47:39;16.75;;;5.32;;
66179;SDS011;52986;44.028;20.466;2023-09-12T13:50:04;22.33;;;5.00;;
66179;SDS011;52986;44.028;20.466;2023-09-12T13:52:30;21.17;;;5.22;;
66179;SDS011;52986;44.028;20.466;2023-09-12T13:54:56;19.23;;;4.70;;
66179;SDS011;52986;44.028;20.466;2023-09-12T13:57:21;19.73;;;5.72;;
66179;SDS011;52986;44.028;20.466;2023-09-12T13:59:46;19.00;;;5.53;;
66179;SDS011;52986;44.028;20.466;2023-09-12T14:02:12;23.65;;;6.47;;
66179;SDS011;52986;44.028;20.466;2023-09-12T14:04:38;19.05;;;6.43;;
66179;SDS011;52986;44.028;20.466;2023-09-12T14:07:03;22.75;;;6.53;;
66179;SDS011;52986;44.028;20.466;2023-09-12T14:09:29;20.38;;;5.30;;
66179;SDS011;52986;44.028;20.466;2023-09-12T14:11:54;21.23;;;4.80;;
66179;SDS011;52986;44.028;20.466;2023-09-12T14:14:19;19.38;;;5.75;;
66179;SDS011;52986;44.028;20.466;2023-09-12T14:16:45;24.55;;;6.03;;
66179;SDS011;52986;44.028;20.466;2023-09-12T14:19:10;21.52;;;5.70;;
66179;SDS011;52986;44.028;20.466;2023-09-12T14:21:36;23.08;;;5.80;;
66179;SDS011;52986;44.028;20.466;2023-09-12T14:24:02;22.60;;;6.63;;
66179;SDS011;52986;44.028;20.466;2023-09-12T14:26:28;22.23;;;6.07;;
66179;SDS011;52986;44.028;20.466;2023-09-12T14:28:53;22.08;;;5.75;;
66179;SDS011;52986;44.028;20.466;2023-09-12T14:31:20;20.27;;;6.80;;
66179;SDS011;52986;44.028;20.466;2023-09-12T14:33:48;21.95;;;7.53;;
66179;SDS011;52986;44.028;20.466;2023-09-12T14:36:13;20.60;;;5.90;;
66179;SDS011;52986;44.028;20.466;2023-09-12T14:38:39;21.63;;;5.93;;
66179;SDS011;52986;44.028;20.466;2023-09-12T14:41:04;23.40;;;5.90;;
66179;SDS011;52986;44.028;20.466;2023-09-12T14:43:30;18.83;;;5.78;;